Terminal Aerodrome Forecast
Issued by NWS Wilmington, NC

Home | Current Version | Previous Version | Text Only | Print | Product List | Glossary On
Versions: 1 2 3 4 5 6 7 8 9 10 11 12 13 14 15 16 17 18 19
000
FTUS42 KILM 302320
TAFLBT
TAF
KLBT 302320Z 3100/3124 14011KT P6SM VCSH SCT025 BKN080
     FM310700 15010KT P6SM VCSH SCT025 BKN040
     FM310900 16010KT 6SM SHRA BR SCT025 OVC040
      TEMPO 3109/3113 3SM TSRA BKN015CB
     FM311400 20011KT 3SM SHRA VCTS OVC030CB
     FM311500 20013KT P6SM VCSH BKN025
     FM311600 21014KT P6SM OVC040 PROB30 3116/3121 4SM TSRA OVC015CB
     FM312100 24015KT P6SM SCT050=

USA.gov is the U.S. government's official web portal to all federal, state and local government web resources and services.